createdAt,value
2019-02-20T00:02:07.353Z,27.80
2019-02-20T00:04:36.150Z,19.12
2019-02-20T00:07:04.951Z,26.53
2019-02-20T00:09:33.824Z,27.70
2019-02-20T00:12:02.799Z,29.83
2019-02-20T00:14:31.748Z,21.55
2019-02-20T00:17:00.542Z,25.90
2019-02-20T00:19:29.477Z,25.03
2019-02-20T00:21:58.265Z,26.27
2019-02-20T00:24:27.115Z,22.33
2019-02-20T00:26:55.900Z,25.17
2019-02-20T00:29:24.705Z,31.30
2019-02-20T00:31:53.582Z,35.47
2019-02-20T00:34:22.360Z,31.37
2019-02-20T00:36:51.167Z,35.33
2019-02-20T00:39:19.977Z,36.37
2019-02-20T00:41:48.781Z,41.70
2019-02-20T00:44:24.702Z,27.98
2019-02-20T00:47:14.613Z,23.40
2019-02-20T00:49:46.570Z,30.63
2019-02-20T00:52:25.415Z,36.10
2019-02-20T00:54:54.373Z,26.50
2019-02-20T00:57:23.266Z,23.83
2019-02-20T00:59:52.065Z,23.77
2019-02-20T01:02:20.937Z,25.43
2019-02-20T01:04:49.746Z,25.93
2019-02-20T01:07:18.547Z,25.48
2019-02-20T01:09:47.385Z,24.77
2019-02-20T01:12:16.194Z,27.23
2019-02-20T01:14:45.048Z,18.27
2019-02-20T01:17:13.913Z,23.12
2019-02-20T01:19:42.793Z,18.67
2019-02-20T01:22:11.597Z,24.13
2019-02-20T01:24:40.407Z,21.70
2019-02-20T01:27:09.274Z,23.10
2019-02-20T01:29:38.189Z,21.87
2019-02-20T01:32:06.973Z,29.30
2019-02-20T01:34:35.825Z,22.10
2019-02-20T01:37:04.704Z,19.97
2019-02-20T01:39:34.635Z,27.15
2019-02-20T01:42:03.428Z,24.90
2019-02-20T01:44:32.245Z,21.90
2019-02-20T01:47:01.063Z,23.00
2019-02-20T01:49:30.179Z,18.40
2019-02-20T01:51:58.967Z,21.23
2019-02-20T01:54:27.859Z,19.90
2019-02-20T01:56:57.266Z,16.80
2019-02-20T01:59:26.130Z,20.17
2019-02-20T02:01:54.921Z,21.53
2019-02-20T02:04:23.749Z,23.73
2019-02-20T02:06:52.641Z,31.48
2019-02-20T02:09:21.527Z,23.83
2019-02-20T02:11:50.400Z,28.73
2019-02-20T02:14:19.201Z,26.90
2019-02-20T02:16:48.007Z,33.10
2019-02-20T02:19:16.867Z,36.00
2019-02-20T02:21:45.666Z,31.57
2019-02-20T02:24:14.545Z,31.30
2019-02-20T02:26:43.439Z,27.50
2019-02-20T02:29:12.247Z,28.30
2019-02-20T02:31:41.134Z,29.63
2019-02-20T02:34:10.004Z,19.07
2019-02-20T02:36:38.881Z,29.27
2019-02-20T02:39:07.823Z,26.73
2019-02-20T02:41:36.717Z,20.20
2019-02-20T02:44:05.771Z,22.70
2019-02-20T02:46:34.662Z,29.50
2019-02-20T02:49:03.449Z,21.83
2019-02-20T02:51:32.438Z,26.68
2019-02-20T02:54:01.253Z,19.37
2019-02-20T02:56:30.059Z,21.27
2019-02-20T02:58:58.835Z,20.73
2019-02-20T03:01:27.625Z,21.27
2019-02-20T03:03:56.424Z,22.77
2019-02-20T03:06:25.301Z,24.03
2019-02-20T03:08:54.100Z,22.87
2019-02-20T03:11:23.002Z,22.03
2019-02-20T03:13:51.788Z,26.70
2019-02-20T03:16:20.583Z,28.40
2019-02-20T03:18:49.446Z,26.57
2019-02-20T03:21:18.366Z,21.80
2019-02-20T03:23:47.213Z,21.87
2019-02-20T03:26:16.069Z,23.77
2019-02-20T03:28:44.863Z,20.90
2019-02-20T03:31:13.673Z,22.48
2019-02-20T03:33:42.665Z,22.80
2019-02-20T03:36:11.648Z,24.07
2019-02-20T03:38:40.508Z,28.30
2019-02-20T03:41:09.390Z,28.73
2019-02-20T03:43:38.246Z,21.37
2019-02-20T03:46:07.124Z,17.37
2019-02-20T03:48:35.952Z,24.03
2019-02-20T03:51:04.842Z,20.57
2019-02-20T03:53:33.631Z,21.33
2019-02-20T03:56:02.559Z,21.93
2019-02-20T03:58:33.208Z,19.90
2019-02-20T04:01:02.116Z,31.90
2019-02-20T04:03:30.903Z,26.43
2019-02-20T04:05:59.709Z,28.87
2019-02-20T04:08:28.491Z,31.40
2019-02-20T04:10:57.289Z,23.73
2019-02-20T04:13:26.087Z,30.73
2019-02-20T04:15:54.948Z,23.30
2019-02-20T04:18:23.850Z,17.93
2019-02-20T04:20:52.678Z,21.52
2019-02-20T04:23:21.551Z,21.03
2019-02-20T04:25:50.354Z,23.20
2019-02-20T04:28:19.188Z,17.77
2019-02-20T04:30:47.960Z,25.70
2019-02-20T04:33:16.751Z,23.27
2019-02-20T04:35:45.564Z,19.70
2019-02-20T04:38:14.361Z,18.30
2019-02-20T04:40:43.153Z,26.63
2019-02-20T04:43:11.956Z,24.50
2019-02-20T04:45:40.764Z,25.77
2019-02-20T04:48:09.572Z,23.00
2019-02-20T04:50:38.450Z,24.60
2019-02-20T04:53:07.258Z,25.70
2019-02-20T04:55:36.069Z,31.90
2019-02-20T04:58:33.421Z,36.20
2019-02-20T05:01:02.227Z,24.70
2019-02-20T05:03:31.101Z,29.13
2019-02-20T05:05:59.993Z,27.50
2019-02-20T05:08:28.803Z,22.03
2019-02-20T05:10:57.607Z,22.93
2019-02-20T05:13:26.420Z,23.80
2019-02-20T05:15:55.227Z,20.57
2019-02-20T05:18:24.042Z,21.60
2019-02-20T05:20:52.888Z,22.50
2019-02-20T05:23:21.700Z,26.00
2019-02-20T05:25:50.578Z,19.27
2019-02-20T05:28:19.377Z,17.70
2019-02-20T05:30:48.227Z,27.55
2019-02-20T05:33:17.051Z,19.60
2019-02-20T05:35:45.860Z,20.17
2019-02-20T05:38:14.710Z,27.53
2019-02-20T05:40:43.471Z,22.70
2019-02-20T05:43:12.310Z,24.97
2019-02-20T05:45:41.181Z,22.93
2019-02-20T05:48:09.983Z,27.40
2019-02-20T05:50:39.670Z,21.62
2019-02-20T05:53:08.462Z,27.80
2019-02-20T05:55:37.261Z,39.30
2019-02-20T05:58:06.073Z,23.07
2019-02-20T06:00:34.875Z,27.23
2019-02-20T06:03:05.040Z,29.10
2019-02-20T06:05:34.157Z,26.47
2019-02-20T06:08:02.950Z,22.87
2019-02-20T06:10:31.946Z,27.23
2019-02-20T06:13:00.774Z,21.80
2019-02-20T06:15:29.559Z,20.00
2019-02-20T06:17:58.424Z,25.62
2019-02-20T06:20:27.292Z,20.53
2019-02-20T06:22:56.092Z,27.50
2019-02-20T06:25:24.888Z,31.20
2019-02-20T06:27:53.731Z,25.37
2019-02-20T06:30:22.522Z,27.90
2019-02-20T06:32:51.352Z,28.87
2019-02-20T06:35:20.252Z,22.97
2019-02-20T06:37:49.122Z,31.23
2019-02-20T06:40:18.015Z,32.03
2019-02-20T06:42:46.816Z,33.53
2019-02-20T06:45:15.630Z,38.30
2019-02-20T06:47:44.541Z,29.23
2019-02-20T06:50:13.547Z,37.10
2019-02-20T06:52:42.488Z,28.37
2019-02-20T06:55:12.543Z,36.65
2019-02-20T06:57:42.435Z,32.93
2019-02-20T07:00:12.031Z,39.38
2019-02-20T07:02:40.861Z,35.33
2019-02-20T07:05:50.362Z,36.27
2019-02-20T07:09:02.344Z,29.53
2019-02-20T07:11:54.729Z,33.67
2019-02-20T07:14:59.126Z,30.37
2019-02-20T07:18:21.146Z,37.70
2019-02-20T07:21:22.488Z,18.43
2019-02-20T07:24:27.202Z,27.93
2019-02-20T07:27:11.182Z,30.90
2019-02-20T07:30:01.035Z,31.67
2019-02-20T07:32:30.022Z,33.60
2019-02-20T07:34:58.941Z,42.33
2019-02-20T07:37:27.759Z,25.13
2019-02-20T07:39:57.346Z,28.03
2019-02-20T07:42:26.317Z,28.70
2019-02-20T07:44:55.135Z,23.97
2019-02-20T07:47:23.935Z,25.30
2019-02-20T07:49:52.816Z,25.00
2019-02-20T07:52:21.648Z,25.72
2019-02-20T07:54:50.583Z,28.00
2019-02-20T07:57:19.363Z,30.57
2019-02-20T07:59:48.313Z,25.60
2019-02-20T08:02:17.090Z,33.13
2019-02-20T08:04:46.060Z,30.97
2019-02-20T08:07:15.430Z,24.50
2019-02-20T08:09:44.413Z,27.87
2019-02-20T08:12:13.309Z,31.03
2019-02-20T08:14:42.110Z,26.37
2019-02-20T08:17:11.042Z,22.83
2019-02-20T08:19:39.823Z,29.57
2019-02-20T08:22:08.711Z,29.43
2019-02-20T08:24:37.573Z,26.90
2019-02-20T08:27:06.526Z,33.18
2019-02-20T08:29:35.322Z,30.05
2019-02-20T08:32:04.215Z,32.20
2019-02-20T08:34:33.042Z,29.90
2019-02-20T08:37:01.867Z,28.67
2019-02-20T08:39:32.043Z,30.92
2019-02-20T08:42:00.823Z,30.80
2019-02-20T08:44:29.700Z,31.60
2019-02-20T08:46:58.509Z,34.77
2019-02-20T08:49:27.303Z,28.63
2019-02-20T08:51:56.202Z,26.30
2019-02-20T08:54:25.075Z,41.03
2019-02-20T08:56:53.874Z,32.13
2019-02-20T08:59:22.667Z,27.67
2019-02-20T09:01:51.549Z,31.87
2019-02-20T09:04:20.480Z,29.40
2019-02-20T09:06:49.282Z,32.35
2019-02-20T09:09:18.135Z,23.03
2019-02-20T09:11:47.511Z,27.90
2019-02-20T09:14:16.372Z,31.17
2019-02-20T09:16:45.216Z,33.83
2019-02-20T09:19:14.005Z,22.83
2019-02-20T09:21:42.800Z,27.47
2019-02-20T09:24:11.584Z,26.37
2019-02-20T09:26:40.386Z,25.27
2019-02-20T09:29:09.285Z,23.57
2019-02-20T09:31:38.125Z,23.47
2019-02-20T09:34:06.921Z,26.42
2019-02-20T09:36:35.735Z,29.07
2019-02-20T09:39:36.793Z,28.10
2019-02-20T09:42:10.375Z,22.90
2019-02-20T09:44:49.305Z,26.42
2019-02-20T09:47:19.174Z,30.55
2019-02-20T09:49:48.445Z,26.12
2019-02-20T09:52:17.274Z,24.80
2019-02-20T09:54:46.440Z,22.57
2019-02-20T09:57:15.314Z,17.07
2019-02-20T09:59:44.092Z,24.77
2019-02-20T10:02:12.884Z,21.87
2019-02-20T10:04:41.663Z,19.27
2019-02-20T10:07:10.745Z,20.67
2019-02-20T10:09:39.542Z,22.73
2019-02-20T10:12:08.432Z,15.37
2019-02-20T10:14:37.235Z,16.40
2019-02-20T10:17:06.143Z,17.27
2019-02-20T10:19:34.926Z,14.95
2019-02-20T10:22:03.703Z,19.83
2019-02-20T10:24:32.563Z,18.10
2019-02-20T10:27:01.345Z,25.33
2019-02-20T10:29:30.143Z,17.30
2019-02-20T10:31:58.930Z,17.83
2019-02-20T10:34:27.721Z,12.77
2019-02-20T10:36:56.506Z,16.90
2019-02-20T10:39:25.334Z,20.40
2019-02-20T10:41:54.108Z,19.00
2019-02-20T10:44:22.904Z,15.87
2019-02-20T10:46:51.697Z,19.30
2019-02-20T10:49:20.480Z,12.83
2019-02-20T10:51:49.908Z,18.98
2019-02-20T10:54:18.695Z,13.57
2019-02-20T10:56:47.470Z,19.57
2019-02-20T10:59:16.536Z,16.43
2019-02-20T11:01:45.440Z,21.33
2019-02-20T11:04:14.307Z,13.37
2019-02-20T11:06:43.109Z,14.73
2019-02-20T11:09:12.079Z,13.17
2019-02-20T11:11:40.850Z,10.57
2019-02-20T11:14:09.661Z,13.33
2019-02-20T11:16:38.430Z,14.30
2019-02-20T11:19:07.295Z,21.10
2019-02-20T11:21:36.085Z,13.47
2019-02-20T11:24:05.015Z,14.03
2019-02-20T11:26:43.273Z,10.60
2019-02-20T11:29:04.468Z,16.50
2019-02-20T11:31:33.321Z,12.37
2019-02-20T11:34:02.892Z,9.83
2019-02-20T11:36:31.758Z,12.40
2019-02-20T11:39:00.632Z,10.10
2019-02-20T11:41:29.478Z,9.07
2019-02-20T11:43:58.262Z,10.20
2019-02-20T11:46:27.119Z,10.67
2019-02-20T11:48:55.938Z,8.13
2019-02-20T11:51:24.714Z,11.13
2019-02-20T11:53:53.600Z,10.10
2019-02-20T11:56:26.566Z,10.40
2019-02-20T11:58:52.920Z,8.37
2019-02-20T12:01:21.748Z,9.80
2019-02-20T12:03:50.623Z,12.40
2019-02-20T12:06:19.772Z,8.43
2019-02-20T12:08:48.605Z,8.60
2019-02-20T12:11:18.586Z,5.77
2019-02-20T12:13:47.489Z,12.60
2019-02-20T12:16:16.404Z,10.27
2019-02-20T12:18:48.414Z,11.80
2019-02-20T12:21:18.075Z,10.60
2019-02-20T12:23:47.051Z,14.73
2019-02-20T12:26:16.026Z,10.83
2019-02-20T12:28:44.808Z,11.97
2019-02-20T12:31:13.666Z,8.10
2019-02-20T12:33:42.444Z,9.25
2019-02-20T12:36:11.301Z,9.80
2019-02-20T12:38:40.081Z,8.67
2019-02-20T12:41:08.878Z,8.07
2019-02-20T12:43:37.662Z,9.20
2019-02-20T12:46:06.601Z,10.20
2019-02-20T12:48:35.406Z,8.30
2019-02-20T12:51:04.350Z,11.10
2019-02-20T12:53:33.138Z,7.65
2019-02-20T12:56:09.673Z,13.93
2019-02-20T12:58:32.457Z,7.87
2019-02-20T13:01:01.258Z,13.57
2019-02-20T13:03:30.063Z,11.70
2019-02-20T13:05:58.923Z,6.70
2019-02-20T13:08:28.099Z,6.33
2019-02-20T13:10:57.276Z,8.47
2019-02-20T13:13:26.402Z,6.70
2019-02-20T13:15:55.584Z,5.37
2019-02-20T13:18:24.374Z,5.50
2019-02-20T13:20:54.195Z,3.98
2019-02-20T13:23:23.093Z,5.53
2019-02-20T13:25:51.977Z,8.07
2019-02-20T13:28:23.238Z,7.30
2019-02-20T13:30:52.019Z,6.20
2019-02-20T13:33:20.803Z,6.37
2019-02-20T13:35:49.592Z,6.77
2019-02-20T13:38:18.374Z,8.97
2019-02-20T13:40:47.175Z,7.63
2019-02-20T13:43:15.954Z,6.97
2019-02-20T13:45:45.235Z,7.37
2019-02-20T13:48:14.071Z,6.57
2019-02-20T13:50:42.859Z,6.05
2019-02-20T13:53:11.709Z,6.03
2019-02-20T13:55:42.376Z,9.27
2019-02-20T13:58:11.736Z,5.57
2019-02-20T14:00:40.652Z,11.23
2019-02-20T14:03:09.431Z,6.23
2019-02-20T14:05:38.227Z,9.53
2019-02-20T14:08:07.069Z,7.37
2019-02-20T14:10:35.877Z,7.43
2019-02-20T14:13:04.658Z,7.40
2019-02-20T14:15:33.453Z,7.73
2019-02-20T14:18:02.517Z,7.23
2019-02-20T14:20:31.454Z,10.10
2019-02-20T14:23:00.345Z,7.97
2019-02-20T14:25:29.359Z,8.67
2019-02-20T14:27:58.208Z,4.27
2019-02-20T14:30:27.088Z,6.00
2019-02-20T14:32:56.304Z,6.60
2019-02-20T14:35:25.094Z,6.40
2019-02-20T14:37:53.882Z,7.60
2019-02-20T14:40:22.686Z,5.60
2019-02-20T14:42:53.289Z,5.08
2019-02-20T14:45:25.206Z,8.40
2019-02-20T14:47:54.007Z,3.87
2019-02-20T14:50:23.052Z,4.90
2019-02-20T14:52:51.873Z,10.93
2019-02-20T14:55:20.714Z,7.17
2019-02-20T14:57:51.038Z,6.30
2019-02-20T15:00:20.351Z,7.70
2019-02-20T15:02:49.116Z,4.80
2019-02-20T15:05:18.423Z,4.12
2019-02-20T15:07:47.205Z,9.63
2019-02-20T15:10:16.058Z,11.43
2019-02-20T15:12:46.638Z,20.17
2019-02-20T15:15:15.690Z,7.50
2019-02-20T15:17:44.565Z,6.87
2019-02-20T15:20:13.607Z,7.50
2019-02-20T15:22:42.468Z,7.63
2019-02-20T15:25:11.410Z,5.60
2019-02-20T15:27:40.279Z,7.00
2019-02-20T15:30:12.367Z,6.73
2019-02-20T15:32:41.612Z,12.10
2019-02-20T15:35:10.660Z,10.23
2019-02-20T15:37:39.602Z,5.70
2019-02-20T15:40:09.088Z,9.77
2019-02-20T15:42:37.970Z,8.27
2019-02-20T15:45:07.134Z,7.10
2019-02-20T15:47:35.965Z,6.03
2019-02-20T15:50:05.862Z,15.83
2019-02-20T15:52:35.115Z,7.57
2019-02-20T15:55:04.488Z,8.80
2019-02-20T15:57:38.085Z,7.27
2019-02-20T16:00:04.470Z,6.17
2019-02-20T16:02:33.418Z,5.45
2019-02-20T16:05:02.279Z,7.27
2019-02-20T16:07:31.363Z,9.70
2019-02-20T16:10:00.209Z,5.60
2019-02-20T16:12:29.856Z,7.28
2019-02-20T16:14:58.651Z,4.57
2019-02-20T16:17:27.507Z,7.27
2019-02-20T16:19:56.460Z,8.03
2019-02-20T16:22:25.256Z,8.00
2019-02-20T16:24:54.394Z,6.93
2019-02-20T16:27:23.266Z,8.00
2019-02-20T16:29:52.200Z,10.97
2019-02-20T16:32:20.984Z,6.80
2019-02-20T16:34:49.873Z,8.23
2019-02-20T16:37:18.734Z,7.77
2019-02-20T16:39:47.890Z,9.57
2019-02-20T16:42:16.680Z,6.60
2019-02-20T16:44:45.780Z,10.10
2019-02-20T16:47:14.650Z,18.00
2019-02-20T16:49:43.430Z,10.23
2019-02-20T16:52:12.397Z,6.70
2019-02-20T16:54:41.312Z,11.20
2019-02-20T16:57:10.364Z,9.95
2019-02-20T16:59:39.153Z,15.70
2019-02-20T17:02:08.998Z,10.70
2019-02-20T17:04:39.505Z,8.20
2019-02-20T17:07:08.466Z,8.40
2019-02-20T17:09:37.287Z,17.80
2019-02-20T17:12:06.404Z,9.25
2019-02-20T17:14:36.547Z,8.20
2019-02-20T17:17:05.597Z,6.03
2019-02-20T17:19:34.370Z,8.10
2019-02-20T17:22:03.404Z,9.55
2019-02-20T17:24:33.422Z,11.28
2019-02-20T17:27:02.819Z,36.63
2019-02-20T17:29:31.741Z,80.93
2019-02-20T17:32:00.537Z,283.77
2019-02-20T17:34:29.321Z,223.63
2019-02-20T17:36:58.279Z,159.70
2019-02-20T17:39:27.216Z,119.73
2019-02-20T17:41:56.008Z,95.63
2019-02-20T17:44:24.803Z,105.90
2019-02-20T17:46:53.588Z,99.10
2019-02-20T17:49:22.457Z,41.40
2019-02-20T17:51:51.312Z,21.00
2019-02-20T17:54:20.177Z,14.13
2019-02-20T17:56:49.030Z,12.93
2019-02-20T17:59:17.829Z,10.37
2019-02-20T18:01:46.790Z,14.00
2019-02-20T18:04:15.629Z,11.80
2019-02-20T18:06:44.408Z,17.60
2019-02-20T18:09:13.683Z,19.37
2019-02-20T18:11:42.542Z,13.70
2019-02-20T18:14:11.415Z,21.07
2019-02-20T18:16:40.272Z,20.50
2019-02-20T18:19:09.087Z,18.70
2019-02-20T18:21:37.954Z,19.80
2019-02-20T18:24:06.893Z,15.40
2019-02-20T18:26:35.688Z,17.95
2019-02-20T18:29:04.987Z,16.07
2019-02-20T18:31:33.845Z,16.83
2019-02-20T18:34:03.002Z,16.17
2019-02-20T18:36:31.794Z,16.93
2019-02-20T18:39:00.590Z,15.80
2019-02-20T18:41:29.372Z,16.62
2019-02-20T18:43:58.189Z,17.50
2019-02-20T18:46:26.977Z,18.90
2019-02-20T18:48:55.840Z,16.27
2019-02-20T18:51:24.699Z,17.27
2019-02-20T18:53:53.577Z,20.37
2019-02-20T18:56:22.461Z,21.57
2019-02-20T18:58:51.226Z,20.63
2019-02-20T19:01:20.026Z,13.80
2019-02-20T19:03:48.829Z,19.23
2019-02-20T19:06:17.767Z,23.50
2019-02-20T19:08:52.132Z,20.50
2019-02-20T19:11:34.202Z,19.07
2019-02-20T19:14:20.507Z,28.17
2019-02-20T19:17:19.664Z,31.27
2019-02-20T19:20:35.026Z,22.93
2019-02-20T19:23:39.769Z,25.83
2019-02-20T19:26:38.645Z,20.60
2019-02-20T19:29:41.017Z,19.60
2019-02-20T19:32:46.811Z,20.37
2019-02-20T19:35:39.995Z,23.53
2019-02-20T19:38:56.099Z,19.73
2019-02-20T19:41:41.698Z,22.50
2019-02-20T19:44:31.872Z,18.00
2019-02-20T19:47:29.594Z,15.97
2019-02-20T19:50:46.188Z,16.03
2019-02-20T19:53:51.541Z,19.50
2019-02-20T19:56:34.625Z,14.60
2019-02-20T19:59:32.735Z,25.37
2019-02-20T20:02:40.611Z,20.90
2019-02-20T20:06:08.934Z,22.30
2019-02-20T20:08:46.424Z,27.50
2019-02-20T20:11:29.224Z,37.53
2019-02-20T20:14:36.426Z,26.17
2019-02-20T20:17:36.328Z,18.20
2019-02-20T20:20:35.155Z,27.30
2019-02-20T20:23:11.790Z,22.20
2019-02-20T20:26:00.168Z,18.98
2019-02-20T20:28:47.453Z,21.80
2019-02-20T20:31:42.297Z,15.40
2019-02-20T20:35:04.635Z,20.30
2019-02-20T20:37:53.948Z,17.30
2019-02-20T20:40:51.915Z,15.10
2019-02-20T20:43:46.421Z,16.57
2019-02-20T20:46:40.962Z,18.00
2019-02-20T20:50:12.859Z,20.77
2019-02-20T20:53:10.799Z,20.65
2019-02-20T20:56:20.975Z,29.70
2019-02-20T20:59:26.034Z,19.62
2019-02-20T21:02:17.263Z,27.90
2019-02-20T21:05:08.481Z,23.35
2019-02-20T21:08:22.023Z,25.88
2019-02-20T21:11:21.556Z,19.80
2019-02-20T21:14:24.248Z,19.13
2019-02-20T21:17:25.538Z,18.60
2019-02-20T21:20:53.820Z,22.57
2019-02-20T21:24:03.471Z,18.80
2019-02-20T21:27:00.273Z,19.47
2019-02-20T21:30:15.060Z,24.70
2019-02-20T21:33:16.539Z,29.37
2019-02-20T21:36:15.410Z,18.85
2019-02-20T21:39:30.595Z,23.13
2019-02-20T21:42:31.453Z,23.80
2019-02-20T21:45:17.475Z,24.50
2019-02-20T21:48:15.325Z,28.80
2019-02-20T21:50:50.816Z,25.72
2019-02-20T21:53:49.698Z,34.63
2019-02-20T21:56:27.018Z,26.80
2019-02-20T22:03:11.249Z,27.85
2019-02-20T22:06:09.803Z,23.13
2019-02-20T22:09:20.297Z,37.60
2019-02-20T22:12:50.518Z,26.33
2019-02-20T22:15:49.920Z,33.33
2019-02-20T22:19:03.089Z,25.57
2019-02-20T22:22:19.634Z,24.30
2019-02-20T22:25:31.941Z,26.10
2019-02-20T22:28:24.106Z,22.70
2019-02-20T22:31:14.273Z,22.60
2019-02-20T22:34:05.021Z,24.07
2019-02-20T22:37:04.410Z,24.70
2019-02-20T22:40:20.046Z,23.37
2019-02-20T22:43:45.437Z,30.80
2019-02-20T22:46:42.550Z,31.80
2019-02-20T22:49:23.505Z,30.03
2019-02-20T22:52:23.148Z,21.43
2019-02-20T22:55:16.529Z,30.60
2019-02-20T22:58:02.324Z,24.33
2019-02-20T23:01:07.097Z,28.23
2019-02-20T23:04:09.598Z,27.70
2019-02-20T23:07:00.921Z,26.70
2019-02-20T23:10:01.639Z,20.00
2019-02-20T23:12:44.869Z,19.97
2019-02-20T23:15:13.753Z,21.02
2019-02-20T23:17:42.645Z,25.00
2019-02-20T23:20:11.506Z,35.63
2019-02-20T23:22:40.304Z,27.20
2019-02-20T23:25:09.193Z,23.67
2019-02-20T23:27:38.047Z,23.00
2019-02-20T23:30:12.870Z,28.17
2019-02-20T23:32:38.895Z,25.57
2019-02-20T23:35:08.265Z,28.47
2019-02-20T23:37:37.124Z,23.13
2019-02-20T23:40:06.714Z,29.17
2019-02-20T23:42:35.668Z,28.10
2019-02-20T23:45:05.100Z,19.67
2019-02-20T23:47:33.888Z,21.37
2019-02-20T23:50:02.685Z,27.75
2019-02-20T23:52:31.549Z,26.25
2019-02-20T23:55:00.502Z,24.50
2019-02-20T23:57:29.428Z,24.83
2019-02-20T23:59:58.246Z,25.57
